Terminal Aerodrome Forecast
Issued by NWS

Home | Current Version | Previous Version | Text Only | Print | Product List | Glossary On
Versions: 1 2 3 4 5 6 7 8 9 10 11 12 13 14
753
FTUS44 KJAN 181720
TAFGTR
TAF
KGTR 181720Z 1818/1918 04004KT P6SM OVC008
     FM182000 07005KT P6SM OVC019
     FM182300 11005KT P6SM OVC015
     FM190100 12007KT 5SM BR BKN009 OVC015
     FM191200 16008KT 4SM SHRA BR OVC007=

USA.gov is the U.S. government's official web portal to all federal, state and local government web resources and services.